VABP/BHO METAR and TAF weather

Enter ICAO airport designator
Station Type Date Time Source
VABP METAR 2020/01/17 21:00 UTC NOAA

VABP 172100Z 36004KT 2000 BR NSC 10/09 Q1017 NOSIG


Station Type Date Time Source
VABP Decoded METAR 2020/01/17 21:00 UTC NOAA

Bhopal / Bairagarh, India (VABP) 23-17N 077-21E 523M
Jan 17, 2020 - 04:00 PM EST / 2020.01.17 2100 UTC
Wind: from the N (360 degrees) at 5 MPH (4 KT):0
Visibility: 1 mile(s):0
Weather: mist
Temperature: 50 F (10 C)
Dew Point: 48 F (9 C)
Relative Humidity: 93%
Pressure (altimeter): 30.03 in. Hg (1017 hPa)
ob: VABP 172100Z 36004KT 2000 BR NSC 10/09 Q1017 NOSIG
cycle: 21

Station Type Date Time Source
VABP TAF 2019/04/18 06:00 UTC NOAA

TAF VABP 180500Z 1806/1815 32008KT 6000 FEW030

Example: see airport list